Berlin Dahlem, Germany

3:37 AM CEST on July 29, 2016 (GMT +0200)
Tegel | | Change Station

Elev 121 ft 52.56 °N, 13.31 °E | Updated 17 minutes ago

Mostly Cloudy
Mostly Cloudy
64 °F
Feels Like 64 °F
N
2
Wind Variable Wind from Variable

Today
High -- | Low -- °F
--% Chance of Precip.
Yesterday
High -- | Low -- °F
Precip. -- in
Pressure 29.89 in
Visibility 6.2 miles
Clouds Few 2000 ft
Scattered Clouds 6000 ft
Mostly Cloudy 9000 ft
Dew Point 61 °F
Humidity 88%
Rainfall 0.00 in
Snow Depth Not available.
5:22 AM 9:03 PM
Waning Crescent, 27% visible
METAR EDDT 290120Z VRB02KT 9999 FEW020 SCT060 BKN090 18/16 Q1012
Pressure 29.89 in
Visibility 6.2 miles
Clouds Few 2000 ft
Scattered Clouds 6000 ft
Mostly Cloudy 9000 ft
Dew Point 61 °F
Humidity 88%
Rainfall 0.00 in
Snow Depth Not available.
5:22 AM 9:03 PM
Waning Crescent, 27% visible
METAR EDDT 290120Z VRB02KT 9999 FEW020 SCT060 BKN090 18/16 Q1012

10-Day Weather Forecast

×

Almanac

Astronomy

Jul. 29, 2016 Rise Set
Actual Time
Civil Twilight
Nautical Twilight
Astronomical Twilight
Moon
Length of Visible Light
Length of Day
Tomorrow will be .
, % of the Moon is Illuminated

Today's Extremes

Country Highs Country Lows

Community

WunderPhotos

Upload Photos

1,928,251 photos uploaded!

WunderBlog® & News

Nearby

Air Quality

  Air Quality AQ Index Pollutant
Not available.

Snow Depth

Station Depth Elevation

Earthquake Activity

City Distance Mag. Time & Date
Minimum magnitude displayed is 2.5.

Coastal Water Temperatures

Place Temperature

Stations

Nearby Weather Stations

Station Location Temp. Windchill Dew Point Humidity Wind Precip. Elev Updated Type